Hermosa Beach, California
Current Conditions -  °F | °C
As of 9:53 AM on Tuesday 21 Oct 2014 (Local Time) from KLAX Reporting Station
Few Clouds Few Clouds  
Wind Chill: 69°   Ceiling: Unl
Heat Index: 69°   Visibility: 7mi
Dew Point: 59°   Wind: 0mph
Humidity: 70%   Direction: NA
Pressure: 29.92"   Gusts: NA
Location:  33.86°N, 118.39°W
Report Text: KLAX 211653Z 00000KT 7SM FEW020 21/15 A2992 RMK AO2 SLP132 T02060150 $
Loading
Personal Weather Stations






























Interactive Weather Map
Tropical Storm Tracking
New forecast layout! Learn more

10-Day Weather Forecast

Advertisements
Track Severe Weather on mobile